createdAt,value
2022-11-05T00:01:39.174Z,9.23
2022-11-05T00:04:41.169Z,10.05
2022-11-05T00:07:31.198Z,11.05
2022-11-05T00:10:01.479Z,11.30
2022-11-05T00:12:46.490Z,15.25
2022-11-05T00:15:31.731Z,9.27
2022-11-05T00:17:58.157Z,9.60
2022-11-05T00:20:24.503Z,13.77
2022-11-05T00:23:09.750Z,10.25
2022-11-05T00:25:36.295Z,9.82
2022-11-05T00:28:03.260Z,10.07
2022-11-05T00:30:30.566Z,10.98
2022-11-05T00:33:00.408Z,10.13
2022-11-05T00:35:26.868Z,9.68
2022-11-05T00:37:53.941Z,12.13
2022-11-05T00:40:20.322Z,11.07
2022-11-05T00:43:05.404Z,11.07
2022-11-05T00:45:31.808Z,10.52
2022-11-05T00:48:16.742Z,11.50
2022-11-05T00:50:43.169Z,10.90
2022-11-05T00:53:10.040Z,10.82
2022-11-05T00:55:41.125Z,11.45
2022-11-05T00:58:09.107Z,9.77
2022-11-05T01:00:36.778Z,12.07
2022-11-05T01:03:05.488Z,12.45
2022-11-05T01:05:32.810Z,11.27
2022-11-05T01:07:59.970Z,11.48
2022-11-05T01:10:26.488Z,13.93
2022-11-05T01:12:53.052Z,11.68
2022-11-05T01:15:20.080Z,10.65
2022-11-05T01:17:46.573Z,16.52
2022-11-05T01:20:12.948Z,9.23
2022-11-05T01:22:39.328Z,9.48
2022-11-05T01:25:07.384Z,8.13
2022-11-05T01:27:33.870Z,9.23
2022-11-05T01:30:00.222Z,12.90
2022-11-05T01:32:26.636Z,12.45
2022-11-05T01:34:53.154Z,12.23
2022-11-05T01:37:19.506Z,13.88
2022-11-05T01:39:45.930Z,9.98
2022-11-05T01:42:19.777Z,10.43
2022-11-05T01:44:52.446Z,8.98
2022-11-05T01:47:37.397Z,9.70
2022-11-05T01:50:06.972Z,12.75
2022-11-05T01:52:34.488Z,9.27
2022-11-05T01:55:01.459Z,8.00
2022-11-05T01:57:28.661Z,7.68
2022-11-05T01:59:57.310Z,9.68
2022-11-05T02:02:25.257Z,6.85
2022-11-05T02:04:54.317Z,6.75
2022-11-05T02:07:21.180Z,6.20
2022-11-05T02:09:56.393Z,7.20
2022-11-05T02:12:23.427Z,6.40
2022-11-05T02:14:49.878Z,5.80
2022-11-05T02:17:19.271Z,6.60
2022-11-05T02:19:48.770Z,4.63
2022-11-05T02:22:24.164Z,5.13
2022-11-05T02:24:50.541Z,7.07
2022-11-05T02:27:35.928Z,4.38
2022-11-05T02:30:04.276Z,5.15
2022-11-05T02:32:45.966Z,4.30
2022-11-05T02:35:12.353Z,4.35
2022-11-05T02:37:40.308Z,5.60
2022-11-05T02:40:19.217Z,4.78
2022-11-05T02:42:48.421Z,3.45
2022-11-05T02:45:14.780Z,3.72
2022-11-05T02:47:44.156Z,3.38
2022-11-05T02:50:18.259Z,3.00
2022-11-05T02:52:59.279Z,2.40
2022-11-05T02:55:25.651Z,2.10
2022-11-05T02:57:52.035Z,3.28
2022-11-05T03:00:37.393Z,3.40
2022-11-05T03:03:05.590Z,4.40
2022-11-05T03:05:38.550Z,2.20
2022-11-05T03:08:08.783Z,2.83
2022-11-05T03:10:37.919Z,2.72
2022-11-05T03:13:07.430Z,3.05
2022-11-05T03:15:51.984Z,2.55
2022-11-05T03:18:26.919Z,3.35
2022-11-05T03:20:53.210Z,2.30
2022-11-05T03:23:45.919Z,3.58
2022-11-05T03:26:12.261Z,3.17
2022-11-05T03:28:40.609Z,2.95
2022-11-05T03:31:07.895Z,3.08
2022-11-05T03:33:36.260Z,4.53
2022-11-05T03:36:05.841Z,4.00
2022-11-05T03:38:34.100Z,4.28
2022-11-05T03:41:03.146Z,2.58
2022-11-05T03:43:30.501Z,3.42
2022-11-05T03:45:59.219Z,5.00
2022-11-05T03:48:27.262Z,3.60
2022-11-05T03:50:53.925Z,3.60
2022-11-05T03:53:25.617Z,2.72
2022-11-05T03:56:02.913Z,2.67
2022-11-05T03:58:30.024Z,4.47
2022-11-05T04:00:58.885Z,4.30
2022-11-05T04:03:25.337Z,3.85
2022-11-05T04:06:19.984Z,3.50
2022-11-05T04:11:49.654Z,4.13
2022-11-05T04:14:16.067Z,2.83
2022-11-05T04:17:01.165Z,3.25
2022-11-05T04:19:46.187Z,3.53
2022-11-05T04:22:41.576Z,3.63
2022-11-05T04:25:08.567Z,7.00
2022-11-05T04:27:35.471Z,4.25
2022-11-05T04:30:20.567Z,3.65
2022-11-05T04:33:06.350Z,4.00
2022-11-05T04:35:32.757Z,3.22
2022-11-05T04:38:00.108Z,6.68
2022-11-05T04:40:26.457Z,4.68
2022-11-05T04:42:53.467Z,6.10
2022-11-05T04:45:19.801Z,4.38
2022-11-05T04:47:46.170Z,7.53
2022-11-05T04:50:13.208Z,6.78
2022-11-05T04:52:40.245Z,5.93
2022-11-05T04:55:06.883Z,5.35
2022-11-05T04:57:33.484Z,6.32
2022-11-05T05:00:00.053Z,4.93
2022-11-05T05:02:26.477Z,6.05
2022-11-05T05:04:52.927Z,4.18
2022-11-05T05:07:19.351Z,3.95
2022-11-05T05:09:45.758Z,4.55
2022-11-05T05:12:12.168Z,4.72
2022-11-05T05:14:38.592Z,4.65
2022-11-05T05:17:05.004Z,6.30
2022-11-05T05:19:51.320Z,6.90
2022-11-05T05:22:17.921Z,6.18
2022-11-05T05:24:48.579Z,6.15
2022-11-05T05:27:17.946Z,3.45
2022-11-05T05:29:44.304Z,6.28
2022-11-05T05:32:10.706Z,6.05
2022-11-05T05:34:37.077Z,4.07
2022-11-05T05:37:03.471Z,4.40
2022-11-05T05:39:29.927Z,4.68
2022-11-05T05:41:56.273Z,4.28
2022-11-05T05:44:22.646Z,4.35
2022-11-05T05:46:49.043Z,6.82
2022-11-05T05:49:15.416Z,4.63
2022-11-05T05:51:41.872Z,4.85
2022-11-05T05:54:08.399Z,5.22
2022-11-05T05:56:34.786Z,3.92
2022-11-05T05:59:01.189Z,4.50
2022-11-05T06:01:27.622Z,3.65
2022-11-05T06:03:54.055Z,5.28
2022-11-05T06:06:21.018Z,3.97
2022-11-05T06:08:47.895Z,6.25
2022-11-05T06:11:14.577Z,5.20
2022-11-05T06:13:40.935Z,6.55
2022-11-05T06:16:08.057Z,7.93
2022-11-05T06:18:35.155Z,5.68
2022-11-05T06:21:02.003Z,4.47
2022-11-05T06:23:29.900Z,4.32
2022-11-05T06:25:59.060Z,5.65
2022-11-05T06:28:25.400Z,6.32
2022-11-05T06:30:51.989Z,3.38
2022-11-05T06:33:18.334Z,5.13
2022-11-05T06:35:44.702Z,4.15
2022-11-05T06:38:11.094Z,3.67
2022-11-05T06:40:37.457Z,5.75
2022-11-05T06:43:03.786Z,6.45
2022-11-05T06:45:30.122Z,4.22
2022-11-05T06:47:57.448Z,6.20
2022-11-05T06:50:24.425Z,3.22
2022-11-05T06:53:01.233Z,3.40
2022-11-05T06:55:28.806Z,3.38
2022-11-05T06:57:55.557Z,4.88
2022-11-05T07:00:22.153Z,4.28
2022-11-05T07:02:48.893Z,5.55
2022-11-05T07:05:15.811Z,5.88
2022-11-05T07:07:43.005Z,7.32
2022-11-05T07:10:11.560Z,6.40
2022-11-05T07:12:37.928Z,6.35
2022-11-05T07:15:04.610Z,4.22
2022-11-05T07:17:30.959Z,6.95
2022-11-05T07:19:57.334Z,5.93
2022-11-05T07:22:23.691Z,5.90
2022-11-05T07:24:50.973Z,6.60
2022-11-05T07:27:17.369Z,6.95
2022-11-05T07:29:43.802Z,6.25
2022-11-05T07:32:10.143Z,5.05
2022-11-05T07:34:36.505Z,5.70
2022-11-05T07:37:02.931Z,5.20
2022-11-05T07:39:29.261Z,7.47
2022-11-05T07:41:55.605Z,6.60
2022-11-05T07:44:21.978Z,5.88
2022-11-05T07:46:48.337Z,4.57
2022-11-05T07:49:14.713Z,4.18
2022-11-05T07:51:41.100Z,6.30
2022-11-05T07:54:07.493Z,7.15
2022-11-05T07:56:33.891Z,9.07
2022-11-05T07:59:00.245Z,6.40
2022-11-05T08:01:26.791Z,6.03
2022-11-05T08:03:53.272Z,4.80
2022-11-05T08:06:19.608Z,7.90
2022-11-05T08:08:45.991Z,6.65
2022-11-05T08:11:12.685Z,6.72
2022-11-05T08:13:39.035Z,6.50
2022-11-05T08:16:05.600Z,6.07
2022-11-05T08:18:32.511Z,8.63
2022-11-05T08:20:59.769Z,7.53
2022-11-05T08:23:26.503Z,8.70
2022-11-05T08:25:53.041Z,6.47
2022-11-05T08:28:22.325Z,6.68
2022-11-05T08:30:52.944Z,10.10
2022-11-05T08:33:20.934Z,9.18
2022-11-05T08:35:47.855Z,7.80
2022-11-05T08:38:15.583Z,9.50
2022-11-05T08:40:42.651Z,8.30
2022-11-05T08:43:10.787Z,6.43
2022-11-05T08:45:38.506Z,8.45
2022-11-05T08:48:09.288Z,6.80
2022-11-05T08:50:37.022Z,5.38
2022-11-05T08:53:04.168Z,5.63
2022-11-05T08:55:30.548Z,9.65
2022-11-05T08:58:01.203Z,7.82
2022-11-05T09:00:29.227Z,6.22
2022-11-05T09:02:58.495Z,7.32
2022-11-05T09:05:24.807Z,8.80
2022-11-05T09:07:53.169Z,11.38
2022-11-05T09:10:22.876Z,11.75
2022-11-05T09:12:49.354Z,13.18
2022-11-05T09:15:15.670Z,15.50
2022-11-05T09:17:42.081Z,11.82
2022-11-05T09:20:10.266Z,12.15
2022-11-05T09:22:40.573Z,16.17
2022-11-05T09:25:09.892Z,10.77
2022-11-05T09:27:36.241Z,14.98
2022-11-05T09:30:02.945Z,12.00
2022-11-05T09:32:30.492Z,10.98
2022-11-05T09:34:56.819Z,10.45
2022-11-05T09:37:23.184Z,7.82
2022-11-05T09:39:49.533Z,6.90
2022-11-05T09:42:16.932Z,8.13
2022-11-05T09:44:45.072Z,9.68
2022-11-05T09:47:14.476Z,5.72
2022-11-05T09:49:50.214Z,6.47
2022-11-05T09:52:26.825Z,8.35
2022-11-05T09:54:54.209Z,9.73
2022-11-05T09:57:23.552Z,7.28
2022-11-05T09:59:54.433Z,8.13
2022-11-05T10:02:32.705Z,8.50
2022-11-05T10:05:03.673Z,6.55
2022-11-05T10:07:47.727Z,4.90
2022-11-05T10:10:26.454Z,5.10
2022-11-05T10:12:55.058Z,7.80
2022-11-05T10:15:37.101Z,6.97
2022-11-05T10:18:09.874Z,6.10
2022-11-05T10:20:37.249Z,6.03
2022-11-05T10:23:17.516Z,8.50
2022-11-05T10:25:46.302Z,10.18
2022-11-05T10:28:23.585Z,9.75
2022-11-05T10:30:52.068Z,5.22
2022-11-05T10:33:24.533Z,6.03
2022-11-05T10:35:52.804Z,8.05
2022-11-05T10:38:19.156Z,5.82
2022-11-05T10:41:09.439Z,5.90
2022-11-05T10:43:58.853Z,6.63
2022-11-05T10:46:38.223Z,5.28
2022-11-05T10:49:26.005Z,8.48
2022-11-05T10:51:55.469Z,8.32
2022-11-05T10:54:22.722Z,7.05
2022-11-05T10:56:49.338Z,8.23
2022-11-05T10:59:23.636Z,10.00
2022-11-05T11:01:57.662Z,5.32
2022-11-05T11:04:25.239Z,11.00
2022-11-05T11:06:52.783Z,5.53
2022-11-05T11:09:39.368Z,6.43
2022-11-05T11:12:07.549Z,7.85
2022-11-05T11:14:35.076Z,6.35
2022-11-05T11:17:33.937Z,6.60
2022-11-05T11:20:19.744Z,6.88
2022-11-05T11:23:04.648Z,6.78
2022-11-05T11:25:49.972Z,11.52
2022-11-05T11:28:18.900Z,7.53
2022-11-05T11:30:50.116Z,6.90
2022-11-05T11:33:20.175Z,7.65
2022-11-05T11:35:46.555Z,8.10
2022-11-05T11:38:14.551Z,7.45
2022-11-05T11:40:40.943Z,5.95
2022-11-05T11:43:25.977Z,6.05
2022-11-05T11:45:53.747Z,5.88
2022-11-05T11:48:23.326Z,7.93
2022-11-05T11:50:50.057Z,6.45
2022-11-05T11:53:35.903Z,8.23
2022-11-05T11:56:21.085Z,6.53
2022-11-05T11:58:51.684Z,7.93
2022-11-05T12:01:23.897Z,6.95
2022-11-05T12:03:51.450Z,8.30
2022-11-05T12:06:17.752Z,12.80
2022-11-05T12:09:08.158Z,7.25
2022-11-05T12:11:47.534Z,12.30
2022-11-05T12:14:16.940Z,13.45
2022-11-05T12:16:50.529Z,12.60
2022-11-05T12:19:22.363Z,8.73
2022-11-05T12:21:54.207Z,7.80
2022-11-05T12:24:39.320Z,8.25
2022-11-05T12:27:24.497Z,10.20
2022-11-05T12:30:02.168Z,8.25
2022-11-05T12:32:47.299Z,13.20
2022-11-05T12:35:32.490Z,15.73
2022-11-05T12:38:28.302Z,12.57
2022-11-05T12:41:09.750Z,13.30
2022-11-05T12:43:36.071Z,11.65
2022-11-05T12:46:08.470Z,11.75
2022-11-05T12:48:59.977Z,11.23
2022-11-05T12:51:45.260Z,11.48
2022-11-05T12:54:17.638Z,10.45
2022-11-05T12:56:48.856Z,11.77
2022-11-05T12:59:21.830Z,12.40
2022-11-05T13:01:50.094Z,13.10
2022-11-05T13:04:36.922Z,12.32
2022-11-05T13:07:05.563Z,11.98
2022-11-05T13:09:38.640Z,14.30
2022-11-05T13:12:07.811Z,9.63
2022-11-05T13:14:54.989Z,11.70
2022-11-05T13:17:23.427Z,12.27
2022-11-05T13:19:49.829Z,12.55
2022-11-05T13:22:26.864Z,10.88
2022-11-05T13:24:55.372Z,12.95
2022-11-05T13:27:27.882Z,11.75
2022-11-05T13:29:58.074Z,12.13
2022-11-05T13:32:24.389Z,13.88
2022-11-05T13:34:57.495Z,12.68
2022-11-05T13:37:47.900Z,14.00
2022-11-05T13:40:17.007Z,12.75
2022-11-05T13:43:02.631Z,15.07
2022-11-05T13:45:47.606Z,14.07
2022-11-05T13:48:32.770Z,15.20
2022-11-05T13:51:17.582Z,12.82
2022-11-05T13:53:47.005Z,13.43
2022-11-05T13:56:32.325Z,11.70
2022-11-05T13:59:05.474Z,12.25
2022-11-05T14:01:38.145Z,13.20
2022-11-05T14:04:05.141Z,10.68
2022-11-05T14:06:34.133Z,13.45
2022-11-05T14:09:07.222Z,13.32
2022-11-05T14:11:35.376Z,9.90
2022-11-05T14:14:04.441Z,10.80
2022-11-05T14:16:51.466Z,15.88
2022-11-05T14:19:17.763Z,11.48
2022-11-05T14:21:47.615Z,10.63
2022-11-05T14:24:23.128Z,11.45
2022-11-05T14:27:01.692Z,14.00
2022-11-05T14:29:38.898Z,10.57
2022-11-05T14:32:25.635Z,10.98
2022-11-05T14:35:04.012Z,10.00
2022-11-05T14:37:30.446Z,8.98
2022-11-05T14:39:57.364Z,11.50
2022-11-05T14:42:28.575Z,9.85
2022-11-05T14:45:03.187Z,8.82
2022-11-05T14:47:31.872Z,11.57
2022-11-05T14:50:00.530Z,10.02
2022-11-05T14:52:27.205Z,9.90
2022-11-05T14:54:54.618Z,10.25
2022-11-05T14:57:39.860Z,8.73
2022-11-05T15:00:07.033Z,10.07
2022-11-05T15:02:35.946Z,6.55
2022-11-05T15:05:33.281Z,11.88
2022-11-05T15:08:00.122Z,10.85
2022-11-05T15:10:29.728Z,11.48
2022-11-05T15:13:01.614Z,10.95
2022-11-05T15:15:29.952Z,9.82
2022-11-05T15:18:01.520Z,10.07
2022-11-05T15:20:39.918Z,9.48
2022-11-05T15:23:09.518Z,9.45
2022-11-05T15:25:53.511Z,7.68
2022-11-05T15:28:32.055Z,9.18
2022-11-05T15:31:00.181Z,7.93
2022-11-05T15:33:27.012Z,6.05
2022-11-05T15:35:53.603Z,8.70
2022-11-05T15:38:28.049Z,7.43
2022-11-05T15:40:58.653Z,9.00
2022-11-05T15:43:25.036Z,12.70
2022-11-05T15:46:05.506Z,7.15
2022-11-05T15:48:32.229Z,14.25
2022-11-05T15:50:58.921Z,23.20
2022-11-05T15:53:56.016Z,12.85
2022-11-05T15:56:22.206Z,7.78
2022-11-05T15:58:49.656Z,12.13
2022-11-05T16:01:20.432Z,11.82
2022-11-05T16:03:46.937Z,14.05
2022-11-05T16:06:13.301Z,11.32
2022-11-05T16:08:45.667Z,12.00
2022-11-05T16:11:20.123Z,11.02
2022-11-05T16:13:46.490Z,10.27
2022-11-05T16:16:15.970Z,11.65
2022-11-05T16:18:43.219Z,11.00
2022-11-05T16:21:10.852Z,13.27
2022-11-05T16:23:41.243Z,9.70
2022-11-05T16:26:55.994Z,9.70
2022-11-05T16:29:17.381Z,12.73
2022-11-05T16:31:48.854Z,10.52
2022-11-05T16:34:41.530Z,10.30
2022-11-05T16:37:10.606Z,15.73
2022-11-05T16:39:37.038Z,10.63
2022-11-05T16:42:26.115Z,11.68
2022-11-05T16:44:53.573Z,12.80
2022-11-05T16:47:20.278Z,10.75
2022-11-05T16:49:50.156Z,16.25
2022-11-05T16:52:16.841Z,12.45
2022-11-05T16:54:43.264Z,9.50
2022-11-05T16:57:24.281Z,11.48
2022-11-05T16:59:50.679Z,7.28
2022-11-05T17:02:17.326Z,13.45
2022-11-05T17:04:43.806Z,11.20
2022-11-05T17:07:10.169Z,10.38
2022-11-05T17:09:36.522Z,14.40
2022-11-05T17:12:03.043Z,15.07
2022-11-05T17:14:29.399Z,16.15
2022-11-05T17:16:55.752Z,11.00
2022-11-05T17:19:22.140Z,11.27
2022-11-05T17:21:49.974Z,11.77
2022-11-05T17:24:16.331Z,10.93
2022-11-05T17:26:42.866Z,12.82
2022-11-05T17:29:09.372Z,14.68
2022-11-05T17:31:35.783Z,18.20
2022-11-05T17:34:02.206Z,11.45
2022-11-05T17:36:30.954Z,12.35
2022-11-05T17:38:57.465Z,16.38
2022-11-05T17:41:24.166Z,16.33
2022-11-05T17:43:54.925Z,10.00
2022-11-05T17:46:21.444Z,9.55
2022-11-05T17:48:47.878Z,13.50
2022-11-05T17:51:15.576Z,16.13
2022-11-05T17:53:42.292Z,14.50
2022-11-05T17:56:12.719Z,12.75
2022-11-05T17:58:39.643Z,14.15
2022-11-05T18:01:07.198Z,16.60
2022-11-05T18:03:34.176Z,13.40
2022-11-05T18:06:04.270Z,15.00
2022-11-05T18:08:31.190Z,8.18
2022-11-05T18:10:57.869Z,10.98
2022-11-05T18:13:24.397Z,9.80
2022-11-05T18:15:54.209Z,10.57
2022-11-05T18:18:20.828Z,11.88
2022-11-05T18:20:47.385Z,10.05
2022-11-05T18:23:14.597Z,10.98
2022-11-05T18:25:41.605Z,12.63
2022-11-05T18:28:08.204Z,13.75
2022-11-05T18:30:37.067Z,10.77
2022-11-05T18:33:03.534Z,11.70
2022-11-05T18:35:29.945Z,10.35
2022-11-05T18:37:56.523Z,10.35
2022-11-05T18:40:24.275Z,12.52
2022-11-05T18:42:50.732Z,16.50
2022-11-05T18:45:17.193Z,17.50
2022-11-05T18:47:43.787Z,14.70
2022-11-05T18:50:10.573Z,14.23
2022-11-05T18:52:37.040Z,12.25
2022-11-05T18:55:03.816Z,14.10
2022-11-05T18:57:32.198Z,14.98
2022-11-05T18:59:58.614Z,13.73
2022-11-05T19:02:25.158Z,15.68
2022-11-05T19:05:22.108Z,12.07
2022-11-05T19:07:38.990Z,12.07
2022-11-05T19:10:05.664Z,14.27
2022-11-05T19:12:32.114Z,13.73
2022-11-05T19:15:02.357Z,12.13
2022-11-05T19:17:30.702Z,13.27
2022-11-05T19:19:57.077Z,18.83
2022-11-05T19:22:23.425Z,17.52
2022-11-05T19:24:49.986Z,19.00
2022-11-05T19:27:16.738Z,20.00
2022-11-05T19:29:43.181Z,34.67
2022-11-05T19:32:09.691Z,12.32
2022-11-05T19:34:36.548Z,19.95
2022-11-05T19:37:03.048Z,24.58
2022-11-05T19:39:29.499Z,23.67
2022-11-05T19:42:00.407Z,25.83
2022-11-05T19:44:29.560Z,20.23
2022-11-05T19:46:55.948Z,21.35
2022-11-05T19:49:22.559Z,20.25
2022-11-05T19:51:48.922Z,17.90
2022-11-05T19:54:15.297Z,16.17
2022-11-05T19:56:41.716Z,17.15
2022-11-05T19:59:08.155Z,15.77
2022-11-05T20:01:34.919Z,16.67
2022-11-05T20:04:02.447Z,19.58
2022-11-05T20:06:31.813Z,15.93
2022-11-05T20:09:20.602Z,19.05
2022-11-05T20:11:46.125Z,21.92
2022-11-05T20:14:12.664Z,24.02
2022-11-05T20:16:40.167Z,17.52
2022-11-05T20:19:07.723Z,17.27
2022-11-05T20:21:34.777Z,12.93
2022-11-05T20:24:01.286Z,16.60
2022-11-05T20:26:27.956Z,15.38
2022-11-05T20:28:54.951Z,14.48
2022-11-05T20:31:21.437Z,11.55
2022-11-05T20:33:47.924Z,11.82
2022-11-05T20:36:15.689Z,12.70
2022-11-05T20:38:42.112Z,16.70
2022-11-05T20:41:09.199Z,14.77
2022-11-05T20:43:36.105Z,12.20
2022-11-05T20:46:04.048Z,22.65
2022-11-05T20:48:34.726Z,15.10
2022-11-05T20:51:05.242Z,10.23
2022-11-05T20:53:31.660Z,11.15
2022-11-05T20:55:58.154Z,25.67
2022-11-05T20:58:24.746Z,32.50
2022-11-05T21:00:53.097Z,34.97
2022-11-05T21:03:19.941Z,38.45
2022-11-05T21:05:50.393Z,31.55
2022-11-05T21:08:16.924Z,27.42
2022-11-05T21:10:50.039Z,29.45
2022-11-05T21:13:17.613Z,30.50
2022-11-05T21:15:48.813Z,33.70
2022-11-05T21:18:15.365Z,26.10
2022-11-05T21:20:41.785Z,15.80
2022-11-05T21:23:11.086Z,17.23
2022-11-05T21:25:38.125Z,18.80
2022-11-05T21:28:04.846Z,16.65
2022-11-05T21:30:31.228Z,15.43
2022-11-05T21:32:57.652Z,16.88
2022-11-05T21:35:24.079Z,15.40
2022-11-05T21:37:50.495Z,26.73
2022-11-05T21:40:17.198Z,17.75
2022-11-05T21:42:43.589Z,20.95
2022-11-05T21:45:10.922Z,18.05
2022-11-05T21:47:37.277Z,19.65
2022-11-05T21:50:03.974Z,19.45
2022-11-05T21:52:49.142Z,20.60
2022-11-05T21:55:34.166Z,16.45
2022-11-05T21:58:20.919Z,18.00
2022-11-05T22:00:47.481Z,13.65
2022-11-05T22:03:13.845Z,14.93
2022-11-05T22:05:40.419Z,14.63
2022-11-05T22:08:06.916Z,12.63
2022-11-05T22:10:33.391Z,13.60
2022-11-05T22:13:00.606Z,16.95
2022-11-05T22:15:27.170Z,15.85
2022-11-05T22:17:53.610Z,14.18
2022-11-05T22:20:20.074Z,14.32
2022-11-05T22:22:46.434Z,13.98
2022-11-05T22:25:13.429Z,18.23
2022-11-05T22:27:39.827Z,14.68
2022-11-05T22:30:06.525Z,14.02
2022-11-05T22:32:33.066Z,14.20
2022-11-05T22:34:59.682Z,10.10
2022-11-05T22:37:26.032Z,10.70
2022-11-05T22:39:52.489Z,9.63
2022-11-05T22:42:19.031Z,11.75
2022-11-05T22:44:45.454Z,12.20
2022-11-05T22:47:12.255Z,9.82
2022-11-05T22:49:39.017Z,10.98
2022-11-05T22:52:05.793Z,12.23
2022-11-05T22:54:37.897Z,12.40
2022-11-05T22:57:05.676Z,10.98
2022-11-05T22:59:32.026Z,11.13
2022-11-05T23:01:58.498Z,8.40
2022-11-05T23:04:25.002Z,8.60
2022-11-05T23:07:10.230Z,7.47
2022-11-05T23:09:55.484Z,9.48
2022-11-05T23:12:32.290Z,10.95
2022-11-05T23:14:59.888Z,10.85
2022-11-05T23:17:44.868Z,8.40
2022-11-05T23:20:15.384Z,7.72
2022-11-05T23:23:00.613Z,5.60
2022-11-05T23:25:26.997Z,5.47
2022-11-05T23:27:53.994Z,7.30
2022-11-05T23:30:21.538Z,9.20
2022-11-05T23:32:48.467Z,7.88
2022-11-05T23:35:15.264Z,27.48
2022-11-05T23:38:00.406Z,5.85
2022-11-05T23:40:28.575Z,7.30
2022-11-05T23:43:13.499Z,5.20
2022-11-05T23:46:00.043Z,6.55
2022-11-05T23:48:26.512Z,8.40
2022-11-05T23:50:55.912Z,8.80
2022-11-05T23:53:22.287Z,9.65
2022-11-05T23:55:49.090Z,7.97
2022-11-05T23:58:16.404Z,6.90
